Flight Track Log - Related Links

Times and Time Zones

All times are in EDT time to prevent confusion due to time zone crossing. See the SWA554 flight status page for this flight to view local times or setup timezone preferences in your user account.


Time Position Orientation Groundspeed Altitude Reporting Facility
EDT Latitude Longitude Course Direction KTS MPH feet Rate Location/Type
Fri 02:41:20 PM 42.9333 -87.8500 124° Southeast 193 222 3,000  Level Milwaukee TRACON
Fri 02:41:53 PM 42.9097 -87.8553 189° South 256 295 4,100 2,000 Climbing Chicago Center
Fri 02:42:20 PM 42.8833 -87.8833 218° Southwest 276 318 5,000 871 Climbing Milwaukee TRACON
Fri 02:42:55 PM 42.8486 -87.9167 215° Southwest 266 306 5,000 1,670 Level Chicago Center
Fri 02:43:57 PM 42.7869 -87.9772 216° Southwest 271 312 7,700 3,290 Climbing Chicago Center
Fri 02:44:59 PM 42.7133 -88.0081 197° South 304 350 11,800 3,968 Climbing Chicago Center
Fri 02:46:01 PM 42.6058 -87.9919 174° South 332 382 15,900 2,976 Climbing Chicago Center
Fri 02:47:04 PM 42.5069 -87.9381 158° South 394 453 18,000 2,496 Climbing Chicago Center
Fri 02:48:06 PM 42.4097 -87.8483 146° Southeast 420 483 21,100 2,806 Climbing Chicago Center
Fri 02:49:08 PM 42.3111 -87.7583 146° Southeast 438 504 23,800 2,516 Climbing Chicago Center
Fri 02:50:10 PM 42.2108 -87.6525 142° Southeast 455 524 26,300 2,419 Climbing Chicago Center
Fri 02:51:12 PM 42.1719 -87.4531 105° East 459 528 28,800 2,129 Climbing Chicago Center
Fri 02:52:14 PM 42.1414 -87.2797 103° East 469 540 30,700 1,645 Climbing Chicago Center
Fri 02:53:16 PM 42.1106 -87.0983 103° East 488 562 32,200 1,790 Climbing Chicago Center
Fri 02:54:18 PM 42.0764 -86.9111 104° East 507 583 34,400 1,355 Climbing Chicago Center
Fri 02:55:20 PM 42.0447 -86.7278 103° East 506 582 35,000 774 Climbing Chicago Center
Fri 02:56:22 PM 42.0131 -86.5397 103° East 500 575 36,000 1,016 Climbing Chicago Center
Fri 02:57:24 PM 41.9806 -86.3583 103° East 499 574 37,100 1,258 Climbing Chicago Center
Fri 02:58:26 PM 41.9475 -86.1775 104° East 499 574 38,600 1,392 Climbing Chicago Center
Fri 02:59:29 PM 41.9061 -85.9644 105° East 493 567 40,000 1,152 Climbing Chicago Center
Fri 03:00:31 PM 41.8700 -85.7847 105° East 496 571 41,000 484 Climbing Chicago Center
Fri 03:01:33 PM 41.8356 -85.6067 104° East 492 566 41,000  Level Chicago Center
Fri 03:02:35 PM 41.8008 -85.4261 104° East 492 566 41,000  Level Chicago Center
Fri 03:03:37 PM 41.7622 -85.2469 106° East 489 563 41,000  Level Chicago Center
Fri 03:04:39 PM 41.7264 -85.0697 105° East 488 562 41,000  Level Chicago Center
Fri 03:05:41 PM 41.6900 -84.8925 105° East 493 567 41,000  Level Chicago Center
Fri 03:06:51 PM 41.6636 -84.6806 99° East 487 560 41,000  Level Cleveland Center
Fri 03:07:51 PM 41.6550 -84.5047 94° East 479 551 41,000  Level Cleveland Center
Fri 03:08:51 PM 41.6486 -84.3267 93° East 479 551 41,000  Level Cleveland Center
Fri 03:09:51 PM 41.6214 -84.1361 101° East 474 545 41,000  Level Cleveland Center
Fri 03:10:51 PM 41.5575 -83.9744 118° Southeast 470 541 41,000  Level Cleveland Center
Fri 03:11:51 PM 41.4911 -83.8156 119° Southeast 483 556 41,000  Level Cleveland Center
Fri 03:12:51 PM 41.4267 -83.6572 118° Southeast 494 568 41,000  Level Cleveland Center
Fri 03:13:51 PM 41.3619 -83.5019 119° Southeast 494 568 41,000  Level Cleveland Center
Fri 03:14:51 PM 41.2972 -83.3414 118° Southeast 489 563 41,000  Level Cleveland Center
Fri 03:15:51 PM 41.2319 -83.1842 119° Southeast 489 563 41,000  Level Cleveland Center
Fri 03:16:51 PM 41.1686 -83.0325 119° Southeast 489 563 41,000  Level Cleveland Center
Fri 03:17:51 PM 41.1031 -82.8731 119° Southeast 489 563 41,000  Level Cleveland Center
Fri 03:18:51 PM 41.0375 -82.7167 119° Southeast 489 563 41,000  Level Cleveland Center
Fri 03:19:51 PM 40.9714 -82.5606 119° Southeast 489 563 41,000  Level Cleveland Center
Fri 03:20:51 PM 40.9053 -82.4019 119° Southeast 489 563 41,000  Level Cleveland Center
Fri 03:21:51 PM 40.8389 -82.2492 120° Southeast 488 562 41,000  Level Cleveland Center
Fri 03:22:51 PM 40.7722 -82.0911 119° Southeast 488 562 41,000  Level Cleveland Center
Fri 03:23:51 PM 40.7114 -81.9528 120° Southeast 488 562 41,000  Level Cleveland Center
Fri 03:24:51 PM 40.6444 -81.7981 120° Southeast 493 567 41,000  Level Cleveland Center
Fri 03:25:51 PM 40.5750 -81.6411 120° Southeast 493 567 41,000  Level Cleveland Center
Fri 03:26:51 PM 40.5097 -81.4897 120° Southeast 493 567 41,000  Level Cleveland Center
Fri 03:27:51 PM 40.4400 -81.3225 119° Southeast 488 562 41,000  Level Cleveland Center
Fri 03:28:51 PM 40.3719 -81.1689 120° Southeast 488 562 41,000  Level Cleveland Center
Fri 03:29:51 PM 40.3061 -81.0158 119° Southeast 488 562 41,000  Level Cleveland Center
Fri 03:30:51 PM 40.2397 -80.8658 120° Southeast 488 562 41,000  Level Cleveland Center
Fri 03:31:51 PM 40.1714 -80.7189 121° Southeast 488 562 41,000  Level Cleveland Center
Fri 03:32:51 PM 40.1047 -80.5694 120° Southeast 488 562 41,000  Level Cleveland Center
Fri 03:33:51 PM 40.0358 -80.4178 121° Southeast 483 556 41,000  Level Cleveland Center
Fri 03:34:51 PM 39.9689 -80.2689 120° Southeast 483 556 41,000 -850 Level Cleveland Center
Fri 03:35:51 PM 39.8994 -80.1175 121° Southeast 483 556 39,300 -2,100 Descending Cleveland Center
Fri 03:36:51 PM 39.8444 -79.9639 115° Southeast 477 549 36,800 -2,550 Descending Cleveland Center
Fri 03:37:51 PM 39.8103 -79.7967 105° East 470 541 34,200 -2,350 Descending Cleveland Center
Fri 03:38:51 PM 39.7775 -79.6322 104° East 470 541 32,100 -2,050 Descending Cleveland Center
Fri 03:39:51 PM 39.7450 -79.4733 105° East 465 535 30,100 -1,959 Descending Cleveland Center
Fri 03:40:29 PM 39.7289 -79.3931 105° East 434 499 28,900 -1,959 Descending Washington Center
Fri 03:41:29 PM 39.6978 -79.2458 105° East 415 478 26,900 -1,900 Descending Washington Center
Fri 03:42:29 PM 39.6647 -79.0986 106° East 415 478 25,100 -950 Descending Washington Center
Fri 03:43:29 PM 39.6353 -78.9597 105° East 415 478 25,000 -550 Descending Washington Center
Fri 03:44:29 PM 39.5958 -78.8044 108° East 415 478 24,000 -1,350 Descending Washington Center
Fri 03:45:29 PM 39.5661 -78.6631 105° East 409 471 22,300 -1,700 Descending Washington Center
Fri 03:46:29 PM 39.5364 -78.5272 106° East 397 457 20,600 -1,850 Descending Washington Center
Fri 03:47:29 PM 39.5061 -78.3917 106° East 392 451 18,600 -1,900 Descending Washington Center
Fri 03:48:29 PM 39.4778 -78.2614 106° East 377 434 16,800 -1,800 Descending Washington Center
Fri 03:49:29 PM 39.4494 -78.1342 106° East 377 434 15,000 -900 Descending Washington Center
Fri 03:50:29 PM 39.4292 -78.0069 102° East 366 421 15,000  Level Washington Center
Fri 03:51:29 PM 39.4358 -77.8783 86° East 354 407 15,000  Level Washington Center
Fri 03:52:29 PM 39.4400 -77.7628 87° East 347 399 15,000 -200 Level Washington Center
Fri 03:53:29 PM 39.4422 -77.6231 89° East 352 405 14,600 -1,000 Descending Washington Center
Fri 03:54:29 PM 39.4442 -77.5078 89° East 352 405 13,000 -1,550 Descending Washington Center
Fri 03:55:29 PM 39.4464 -77.3733 89° East 345 397 11,500 -1,111 Descending Washington Center
Fri 03:56:17 PM 39.4500 -77.2833 87° East 326 375 11,000 -641 Descending Potomac TRACON
Fri 03:57:12 PM 39.4667 -77.1667 79° East 323 372 10,400 -991 Descending Potomac TRACON
Fri 03:58:12 PM 39.4500 -77.0667 102° East 311 358 9,100 -1,350 Descending Potomac TRACON
Fri 03:59:12 PM 39.4500 -76.9500 90° East 308 354 7,700 -1,339 Descending Potomac TRACON
Fri 04:00:13 PM 39.4500 -76.8500 90° East 284 327 6,400 -1,240 Descending Potomac TRACON
Fri 04:01:13 PM 39.4500 -76.7500 90° East 281 323 5,200 -700 Descending Potomac TRACON
Fri 04:02:13 PM 39.4333 -76.6500 102° East 274 315 5,000 -105 Descending Potomac TRACON
Fri 04:03:07 PM 39.4000 -76.5667 117° Southeast 275 316 5,000 -526 Level Potomac TRACON
Fri 04:04:07 PM 39.3333 -76.5333 159° South 273 314 4,000 -744 Descending Potomac TRACON
Fri 04:05:08 PM 39.2667 -76.5167 169° South 271 312 3,500 -545 Descending Potomac TRACON
Fri 04:06:08 PM 39.2000 -76.5500 201° Southwest 250 288 2,900 -470 Descending Potomac TRACON
Fri 04:07:03 PM 39.1333 -76.5667 191° South 209 241 2,600 -626 Descending Potomac TRACON
Fri 04:08:03 PM 39.1167 -76.6000 237° Southwest 143 165 1,700 -800 Descending Potomac TRACON
Fri 04:09:03 PM 39.1333 -76.6333 303° West 122 140 1,000 -700 Descending Potomac TRACON

Login

Don't have an account? Register now (free) for customized features, flight alerts, and more!